sensor_id;sensor_type;location;lat;lon;timestamp;P1;durP1;ratioP1;P2;durP2;ratioP2
6013;SDS011;3035;49.928;8.410;2023-05-07T00:02:01;5.13;;;1.90;;
6013;SDS011;3035;49.928;8.410;2023-05-07T00:04:30;2.43;;;1.70;;
6013;SDS011;3035;49.928;8.410;2023-05-07T00:06:58;2.60;;;1.87;;
6013;SDS011;3035;49.928;8.410;2023-05-07T00:09:26;7.07;;;2.33;;
6013;SDS011;3035;49.928;8.410;2023-05-07T00:11:55;2.60;;;2.17;;
6013;SDS011;3035;49.928;8.410;2023-05-07T00:14:23;2.60;;;1.37;;
6013;SDS011;3035;49.928;8.410;2023-05-07T00:16:52;6.73;;;1.50;;
6013;SDS011;3035;49.928;8.410;2023-05-07T00:19:21;2.50;;;1.57;;
6013;SDS011;3035;49.928;8.410;2023-05-07T00:21:49;2.17;;;1.73;;
6013;SDS011;3035;49.928;8.410;2023-05-07T00:24:18;2.50;;;1.57;;
6013;SDS011;3035;49.928;8.410;2023-05-07T00:26:47;2.73;;;1.70;;
6013;SDS011;3035;49.928;8.410;2023-05-07T00:29:16;3.90;;;1.70;;
6013;SDS011;3035;49.928;8.410;2023-05-07T00:31:44;2.13;;;1.53;;
6013;SDS011;3035;49.928;8.410;2023-05-07T00:34:13;2.40;;;1.77;;
6013;SDS011;3035;49.928;8.410;2023-05-07T00:36:41;6.87;;;1.60;;
6013;SDS011;3035;49.928;8.410;2023-05-07T00:39:09;2.50;;;1.53;;
6013;SDS011;3035;49.928;8.410;2023-05-07T00:41:38;1.80;;;1.47;;
6013;SDS011;3035;49.928;8.410;2023-05-07T00:44:06;1.50;;;1.40;;
6013;SDS011;3035;49.928;8.410;2023-05-07T00:46:35;2.03;;;1.50;;
6013;SDS011;3035;49.928;8.410;2023-05-07T00:49:03;2.90;;;1.60;;
6013;SDS011;3035;49.928;8.410;2023-05-07T00:51:32;7.17;;;1.60;;
6013;SDS011;3035;49.928;8.410;2023-05-07T00:54:02;2.10;;;1.90;;
6013;SDS011;3035;49.928;8.410;2023-05-07T00:56:29;4.07;;;1.67;;
6013;SDS011;3035;49.928;8.410;2023-05-07T00:58:57;2.47;;;2.27;;
6013;SDS011;3035;49.928;8.410;2023-05-07T01:01:26;5.57;;;1.90;;
6013;SDS011;3035;49.928;8.410;2023-05-07T01:03:54;3.20;;;1.60;;
6013;SDS011;3035;49.928;8.410;2023-05-07T01:06:23;3.87;;;1.93;;
6013;SDS011;3035;49.928;8.410;2023-05-07T01:08:51;2.50;;;1.70;;
6013;SDS011;3035;49.928;8.410;2023-05-07T01:11:19;2.57;;;1.83;;
6013;SDS011;3035;49.928;8.410;2023-05-07T01:13:48;2.10;;;1.90;;
6013;SDS011;3035;49.928;8.410;2023-05-07T01:16:16;25.53;;;2.20;;
6013;SDS011;3035;49.928;8.410;2023-05-07T01:18:44;2.40;;;1.53;;
6013;SDS011;3035;49.928;8.410;2023-05-07T01:21:12;3.43;;;1.87;;
6013;SDS011;3035;49.928;8.410;2023-05-07T01:23:41;3.30;;;2.13;;
6013;SDS011;3035;49.928;8.410;2023-05-07T01:26:10;2.33;;;1.97;;
6013;SDS011;3035;49.928;8.410;2023-05-07T01:28:39;2.90;;;1.80;;
6013;SDS011;3035;49.928;8.410;2023-05-07T01:31:08;6.93;;;1.80;;
6013;SDS011;3035;49.928;8.410;2023-05-07T01:33:36;1.97;;;1.77;;
6013;SDS011;3035;49.928;8.410;2023-05-07T01:36:05;3.03;;;1.97;;
6013;SDS011;3035;49.928;8.410;2023-05-07T01:38:35;1.90;;;1.70;;
6013;SDS011;3035;49.928;8.410;2023-05-07T01:41:03;4.50;;;1.97;;
6013;SDS011;3035;49.928;8.410;2023-05-07T01:43:31;5.40;;;1.90;;
6013;SDS011;3035;49.928;8.410;2023-05-07T01:45:59;3.73;;;1.73;;
6013;SDS011;3035;49.928;8.410;2023-05-07T01:48:28;9.23;;;2.43;;
6013;SDS011;3035;49.928;8.410;2023-05-07T01:50:56;5.20;;;2.20;;
6013;SDS011;3035;49.928;8.410;2023-05-07T01:53:26;3.23;;;2.07;;
6013;SDS011;3035;49.928;8.410;2023-05-07T01:55:54;5.40;;;1.97;;
6013;SDS011;3035;49.928;8.410;2023-05-07T01:58:22;5.13;;;1.90;;
6013;SDS011;3035;49.928;8.410;2023-05-07T02:00:50;2.50;;;1.93;;
6013;SDS011;3035;49.928;8.410;2023-05-07T02:03:19;8.13;;;2.00;;
6013;SDS011;3035;49.928;8.410;2023-05-07T02:05:49;5.17;;;2.20;;
6013;SDS011;3035;49.928;8.410;2023-05-07T02:08:17;7.43;;;1.53;;
6013;SDS011;3035;49.928;8.410;2023-05-07T02:10:45;13.97;;;2.40;;
6013;SDS011;3035;49.928;8.410;2023-05-07T02:13:14;5.03;;;2.10;;
6013;SDS011;3035;49.928;8.410;2023-05-07T02:15:42;5.20;;;2.07;;
6013;SDS011;3035;49.928;8.410;2023-05-07T02:18:10;2.63;;;2.00;;
6013;SDS011;3035;49.928;8.410;2023-05-07T02:20:39;2.10;;;1.90;;
6013;SDS011;3035;49.928;8.410;2023-05-07T02:23:08;5.17;;;1.77;;
6013;SDS011;3035;49.928;8.410;2023-05-07T02:25:36;2.60;;;1.90;;
6013;SDS011;3035;49.928;8.410;2023-05-07T02:28:04;3.10;;;2.23;;
6013;SDS011;3035;49.928;8.410;2023-05-07T02:30:33;4.53;;;2.13;;
6013;SDS011;3035;49.928;8.410;2023-05-07T02:33:01;5.17;;;2.37;;
6013;SDS011;3035;49.928;8.410;2023-05-07T02:35:30;2.00;;;1.80;;
6013;SDS011;3035;49.928;8.410;2023-05-07T02:37:59;6.73;;;2.00;;
6013;SDS011;3035;49.928;8.410;2023-05-07T02:40:27;6.10;;;1.90;;
6013;SDS011;3035;49.928;8.410;2023-05-07T02:42:56;2.87;;;1.87;;
6013;SDS011;3035;49.928;8.410;2023-05-07T02:45:25;5.27;;;1.73;;
6013;SDS011;3035;49.928;8.410;2023-05-07T02:47:53;3.67;;;2.07;;
6013;SDS011;3035;49.928;8.410;2023-05-07T02:50:22;2.73;;;2.10;;
6013;SDS011;3035;49.928;8.410;2023-05-07T02:52:50;13.03;;;2.80;;
6013;SDS011;3035;49.928;8.410;2023-05-07T02:55:19;4.00;;;2.80;;
6013;SDS011;3035;49.928;8.410;2023-05-07T02:57:47;5.60;;;2.13;;
6013;SDS011;3035;49.928;8.410;2023-05-07T03:00:16;5.87;;;2.77;;
6013;SDS011;3035;49.928;8.410;2023-05-07T03:02:44;5.20;;;2.20;;
6013;SDS011;3035;49.928;8.410;2023-05-07T03:05:12;3.83;;;2.00;;
6013;SDS011;3035;49.928;8.410;2023-05-07T03:07:41;6.70;;;1.97;;
6013;SDS011;3035;49.928;8.410;2023-05-07T03:10:10;11.43;;;1.87;;
6013;SDS011;3035;49.928;8.410;2023-05-07T03:12:39;6.30;;;1.80;;
6013;SDS011;3035;49.928;8.410;2023-05-07T03:15:07;5.33;;;2.13;;
6013;SDS011;3035;49.928;8.410;2023-05-07T03:17:36;2.60;;;2.07;;
6013;SDS011;3035;49.928;8.410;2023-05-07T03:20:06;6.70;;;2.30;;
6013;SDS011;3035;49.928;8.410;2023-05-07T03:22:36;5.23;;;1.93;;
6013;SDS011;3035;49.928;8.410;2023-05-07T03:25:04;2.57;;;2.20;;
6013;SDS011;3035;49.928;8.410;2023-05-07T03:27:34;2.80;;;1.80;;
6013;SDS011;3035;49.928;8.410;2023-05-07T03:30:03;5.40;;;2.27;;
6013;SDS011;3035;49.928;8.410;2023-05-07T03:32:32;3.03;;;1.90;;
6013;SDS011;3035;49.928;8.410;2023-05-07T03:35:01;2.70;;;2.17;;
6013;SDS011;3035;49.928;8.410;2023-05-07T03:37:29;3.63;;;1.80;;
6013;SDS011;3035;49.928;8.410;2023-05-07T03:39:58;5.27;;;2.00;;
6013;SDS011;3035;49.928;8.410;2023-05-07T03:42:26;2.50;;;2.03;;
6013;SDS011;3035;49.928;8.410;2023-05-07T03:44:55;3.20;;;2.23;;
6013;SDS011;3035;49.928;8.410;2023-05-07T03:47:23;6.93;;;1.90;;
6013;SDS011;3035;49.928;8.410;2023-05-07T03:49:52;8.83;;;2.47;;
6013;SDS011;3035;49.928;8.410;2023-05-07T03:52:20;6.40;;;2.40;;
6013;SDS011;3035;49.928;8.410;2023-05-07T03:54:49;12.87;;;2.10;;
6013;SDS011;3035;49.928;8.410;2023-05-07T03:57:17;7.40;;;2.27;;
6013;SDS011;3035;49.928;8.410;2023-05-07T03:59:47;4.03;;;2.80;;
6013;SDS011;3035;49.928;8.410;2023-05-07T04:02:15;6.20;;;2.20;;
6013;SDS011;3035;49.928;8.410;2023-05-07T04:04:44;11.40;;;2.40;;
6013;SDS011;3035;49.928;8.410;2023-05-07T04:07:13;2.03;;;1.80;;
6013;SDS011;3035;49.928;8.410;2023-05-07T04:09:41;7.20;;;2.00;;
6013;SDS011;3035;49.928;8.410;2023-05-07T04:12:09;3.80;;;2.33;;
6013;SDS011;3035;49.928;8.410;2023-05-07T04:14:37;3.43;;;2.13;;
6013;SDS011;3035;49.928;8.410;2023-05-07T04:17:06;3.23;;;2.03;;
6013;SDS011;3035;49.928;8.410;2023-05-07T04:19:35;2.57;;;2.37;;
6013;SDS011;3035;49.928;8.410;2023-05-07T04:22:03;2.47;;;2.07;;
6013;SDS011;3035;49.928;8.410;2023-05-07T04:24:31;5.03;;;2.30;;
6013;SDS011;3035;49.928;8.410;2023-05-07T04:27:00;4.50;;;2.10;;
6013;SDS011;3035;49.928;8.410;2023-05-07T04:29:29;2.53;;;2.33;;
6013;SDS011;3035;49.928;8.410;2023-05-07T04:31:57;4.47;;;2.33;;
6013;SDS011;3035;49.928;8.410;2023-05-07T04:34:26;3.77;;;2.10;;
6013;SDS011;3035;49.928;8.410;2023-05-07T04:36:57;2.20;;;1.90;;
6013;SDS011;3035;49.928;8.410;2023-05-07T04:39:23;2.70;;;2.43;;
6013;SDS011;3035;49.928;8.410;2023-05-07T04:41:51;3.10;;;2.20;;
6013;SDS011;3035;49.928;8.410;2023-05-07T04:44:19;8.23;;;2.27;;
6013;SDS011;3035;49.928;8.410;2023-05-07T04:46:47;3.00;;;2.00;;
6013;SDS011;3035;49.928;8.410;2023-05-07T04:49:16;3.93;;;2.63;;
6013;SDS011;3035;49.928;8.410;2023-05-07T04:51:45;2.30;;;2.03;;
6013;SDS011;3035;49.928;8.410;2023-05-07T04:54:14;2.20;;;2.00;;
6013;SDS011;3035;49.928;8.410;2023-05-07T04:56:42;2.10;;;1.90;;
6013;SDS011;3035;49.928;8.410;2023-05-07T04:59:11;2.20;;;1.87;;
6013;SDS011;3035;49.928;8.410;2023-05-07T05:01:39;2.03;;;1.83;;
6013;SDS011;3035;49.928;8.410;2023-05-07T05:04:07;5.73;;;2.33;;
6013;SDS011;3035;49.928;8.410;2023-05-07T05:06:36;2.43;;;2.07;;
6013;SDS011;3035;49.928;8.410;2023-05-07T05:09:05;3.47;;;2.40;;
6013;SDS011;3035;49.928;8.410;2023-05-07T05:11:33;2.37;;;1.87;;
6013;SDS011;3035;49.928;8.410;2023-05-07T05:14:02;2.43;;;2.23;;
6013;SDS011;3035;49.928;8.410;2023-05-07T05:16:30;1.87;;;1.67;;
6013;SDS011;3035;49.928;8.410;2023-05-07T05:18:59;2.40;;;2.17;;
6013;SDS011;3035;49.928;8.410;2023-05-07T05:21:26;1.90;;;1.80;;
6013;SDS011;3035;49.928;8.410;2023-05-07T05:23:56;3.77;;;1.80;;
6013;SDS011;3035;49.928;8.410;2023-05-07T05:26:24;2.60;;;2.23;;
6013;SDS011;3035;49.928;8.410;2023-05-07T05:28:52;3.93;;;2.00;;
6013;SDS011;3035;49.928;8.410;2023-05-07T05:31:20;2.10;;;1.90;;
6013;SDS011;3035;49.928;8.410;2023-05-07T05:33:48;6.57;;;1.90;;
6013;SDS011;3035;49.928;8.410;2023-05-07T05:36:17;3.83;;;2.40;;
6013;SDS011;3035;49.928;8.410;2023-05-07T05:38:45;9.40;;;2.40;;
6013;SDS011;3035;49.928;8.410;2023-05-07T05:41:15;4.27;;;1.97;;
6013;SDS011;3035;49.928;8.410;2023-05-07T05:43:43;2.27;;;2.07;;
6013;SDS011;3035;49.928;8.410;2023-05-07T05:46:12;1.90;;;1.80;;
6013;SDS011;3035;49.928;8.410;2023-05-07T05:48:41;2.43;;;2.23;;
6013;SDS011;3035;49.928;8.410;2023-05-07T05:51:10;2.83;;;2.23;;
6013;SDS011;3035;49.928;8.410;2023-05-07T05:53:38;3.50;;;2.90;;
6013;SDS011;3035;49.928;8.410;2023-05-07T05:56:06;2.60;;;2.23;;
6013;SDS011;3035;49.928;8.410;2023-05-07T05:58:34;3.60;;;1.93;;
6013;SDS011;3035;49.928;8.410;2023-05-07T06:01:02;3.73;;;2.07;;
6013;SDS011;3035;49.928;8.410;2023-05-07T06:03:31;3.93;;;2.13;;
6013;SDS011;3035;49.928;8.410;2023-05-07T06:06:00;5.53;;;3.20;;
6013;SDS011;3035;49.928;8.410;2023-05-07T06:08:29;3.70;;;2.30;;
6013;SDS011;3035;49.928;8.410;2023-05-07T06:10:57;2.50;;;2.30;;
6013;SDS011;3035;49.928;8.410;2023-05-07T06:13:25;2.93;;;2.30;;
6013;SDS011;3035;49.928;8.410;2023-05-07T06:15:53;3.07;;;2.30;;
6013;SDS011;3035;49.928;8.410;2023-05-07T06:18:22;6.33;;;2.40;;
6013;SDS011;3035;49.928;8.410;2023-05-07T06:20:53;3.80;;;2.33;;
6013;SDS011;3035;49.928;8.410;2023-05-07T06:23:20;3.83;;;2.27;;
6013;SDS011;3035;49.928;8.410;2023-05-07T06:25:49;3.40;;;2.60;;
6013;SDS011;3035;49.928;8.410;2023-05-07T06:28:17;4.97;;;2.20;;
6013;SDS011;3035;49.928;8.410;2023-05-07T06:30:45;4.30;;;2.33;;
6013;SDS011;3035;49.928;8.410;2023-05-07T06:33:13;16.07;;;2.37;;
6013;SDS011;3035;49.928;8.410;2023-05-07T06:35:41;3.53;;;2.30;;
6013;SDS011;3035;49.928;8.410;2023-05-07T06:38:10;6.27;;;2.37;;
6013;SDS011;3035;49.928;8.410;2023-05-07T06:40:39;4.40;;;2.43;;
6013;SDS011;3035;49.928;8.410;2023-05-07T06:43:07;2.60;;;2.40;;
6013;SDS011;3035;49.928;8.410;2023-05-07T06:45:36;4.20;;;2.27;;
6013;SDS011;3035;49.928;8.410;2023-05-07T06:48:04;4.07;;;2.10;;
6013;SDS011;3035;49.928;8.410;2023-05-07T06:50:33;2.90;;;2.20;;
6013;SDS011;3035;49.928;8.410;2023-05-07T06:53:01;4.80;;;2.37;;
6013;SDS011;3035;49.928;8.410;2023-05-07T06:55:30;9.33;;;2.23;;
6013;SDS011;3035;49.928;8.410;2023-05-07T06:57:58;4.90;;;2.43;;
6013;SDS011;3035;49.928;8.410;2023-05-07T07:00:27;5.27;;;2.43;;
6013;SDS011;3035;49.928;8.410;2023-05-07T07:02:56;3.27;;;2.27;;
6013;SDS011;3035;49.928;8.410;2023-05-07T07:05:24;2.40;;;2.17;;
6013;SDS011;3035;49.928;8.410;2023-05-07T07:07:52;5.63;;;2.07;;
6013;SDS011;3035;49.928;8.410;2023-05-07T07:10:22;7.20;;;2.47;;
6013;SDS011;3035;49.928;8.410;2023-05-07T07:12:50;6.80;;;2.57;;
6013;SDS011;3035;49.928;8.410;2023-05-07T07:15:19;3.63;;;2.33;;
6013;SDS011;3035;49.928;8.410;2023-05-07T07:17:48;4.17;;;2.33;;
6013;SDS011;3035;49.928;8.410;2023-05-07T07:20:17;5.40;;;2.60;;
6013;SDS011;3035;49.928;8.410;2023-05-07T07:22:46;3.00;;;2.37;;
6013;SDS011;3035;49.928;8.410;2023-05-07T07:25:14;10.13;;;3.00;;
6013;SDS011;3035;49.928;8.410;2023-05-07T07:27:43;7.10;;;2.40;;
6013;SDS011;3035;49.928;8.410;2023-05-07T07:30:13;3.80;;;2.23;;
6013;SDS011;3035;49.928;8.410;2023-05-07T07:32:41;3.03;;;2.43;;
6013;SDS011;3035;49.928;8.410;2023-05-07T07:35:09;2.50;;;2.13;;
6013;SDS011;3035;49.928;8.410;2023-05-07T07:37:38;4.57;;;2.60;;
6013;SDS011;3035;49.928;8.410;2023-05-07T07:40:07;4.57;;;2.77;;
6013;SDS011;3035;49.928;8.410;2023-05-07T07:42:36;2.33;;;2.13;;
6013;SDS011;3035;49.928;8.410;2023-05-07T07:45:05;4.87;;;2.40;;
6013;SDS011;3035;49.928;8.410;2023-05-07T07:47:34;6.30;;;2.30;;
6013;SDS011;3035;49.928;8.410;2023-05-07T07:50:03;2.77;;;2.50;;
6013;SDS011;3035;49.928;8.410;2023-05-07T07:52:33;2.57;;;2.37;;
6013;SDS011;3035;49.928;8.410;2023-05-07T07:55:01;3.10;;;2.70;;
6013;SDS011;3035;49.928;8.410;2023-05-07T07:57:29;3.03;;;2.57;;
6013;SDS011;3035;49.928;8.410;2023-05-07T07:59:58;3.20;;;2.40;;
6013;SDS011;3035;49.928;8.410;2023-05-07T08:02:26;4.57;;;3.37;;
6013;SDS011;3035;49.928;8.410;2023-05-07T08:04:55;5.07;;;3.40;;
6013;SDS011;3035;49.928;8.410;2023-05-07T08:07:23;4.63;;;2.73;;
6013;SDS011;3035;49.928;8.410;2023-05-07T08:09:52;3.60;;;2.87;;
6013;SDS011;3035;49.928;8.410;2023-05-07T08:12:20;2.80;;;2.57;;
6013;SDS011;3035;49.928;8.410;2023-05-07T08:14:49;3.03;;;2.70;;
6013;SDS011;3035;49.928;8.410;2023-05-07T08:17:17;5.73;;;3.10;;
6013;SDS011;3035;49.928;8.410;2023-05-07T08:19:45;6.53;;;2.80;;
6013;SDS011;3035;49.928;8.410;2023-05-07T08:22:13;4.17;;;2.70;;
6013;SDS011;3035;49.928;8.410;2023-05-07T08:24:41;3.03;;;2.73;;
6013;SDS011;3035;49.928;8.410;2023-05-07T08:27:11;3.30;;;2.50;;
6013;SDS011;3035;49.928;8.410;2023-05-07T08:29:39;4.63;;;2.67;;
6013;SDS011;3035;49.928;8.410;2023-05-07T08:32:07;5.30;;;2.53;;
6013;SDS011;3035;49.928;8.410;2023-05-07T08:34:35;3.47;;;2.63;;
6013;SDS011;3035;49.928;8.410;2023-05-07T08:37:04;4.53;;;2.83;;
6013;SDS011;3035;49.928;8.410;2023-05-07T08:39:32;7.23;;;2.70;;
6013;SDS011;3035;49.928;8.410;2023-05-07T08:42:01;4.00;;;3.07;;
6013;SDS011;3035;49.928;8.410;2023-05-07T08:44:29;4.67;;;2.60;;
6013;SDS011;3035;49.928;8.410;2023-05-07T08:46:57;4.70;;;2.50;;
6013;SDS011;3035;49.928;8.410;2023-05-07T08:49:27;5.03;;;2.60;;
6013;SDS011;3035;49.928;8.410;2023-05-07T08:51:55;5.50;;;2.80;;
6013;SDS011;3035;49.928;8.410;2023-05-07T08:54:23;3.20;;;2.70;;
6013;SDS011;3035;49.928;8.410;2023-05-07T08:56:52;9.70;;;2.20;;
6013;SDS011;3035;49.928;8.410;2023-05-07T08:59:21;4.40;;;2.80;;
6013;SDS011;3035;49.928;8.410;2023-05-07T09:01:50;4.50;;;2.80;;
6013;SDS011;3035;49.928;8.410;2023-05-07T09:04:18;6.30;;;2.93;;
6013;SDS011;3035;49.928;8.410;2023-05-07T09:06:47;5.37;;;2.70;;
6013;SDS011;3035;49.928;8.410;2023-05-07T09:09:16;3.20;;;2.80;;
6013;SDS011;3035;49.928;8.410;2023-05-07T09:11:45;2.93;;;2.30;;
6013;SDS011;3035;49.928;8.410;2023-05-07T09:14:14;2.57;;;2.37;;
6013;SDS011;3035;49.928;8.410;2023-05-07T09:16:43;6.70;;;2.60;;
6013;SDS011;3035;49.928;8.410;2023-05-07T09:19:12;4.23;;;2.60;;
6013;SDS011;3035;49.928;8.410;2023-05-07T09:21:40;8.67;;;2.53;;
6013;SDS011;3035;49.928;8.410;2023-05-07T09:24:09;2.70;;;2.50;;
6013;SDS011;3035;49.928;8.410;2023-05-07T09:26:37;2.67;;;2.40;;
6013;SDS011;3035;49.928;8.410;2023-05-07T09:29:06;17.20;;;3.00;;
6013;SDS011;3035;49.928;8.410;2023-05-07T09:31:36;5.57;;;2.63;;
6013;SDS011;3035;49.928;8.410;2023-05-07T09:34:04;4.20;;;2.80;;
6013;SDS011;3035;49.928;8.410;2023-05-07T09:36:32;3.80;;;2.80;;
6013;SDS011;3035;49.928;8.410;2023-05-07T09:39:00;4.50;;;2.20;;
6013;SDS011;3035;49.928;8.410;2023-05-07T09:41:30;3.33;;;2.80;;
6013;SDS011;3035;49.928;8.410;2023-05-07T09:43:57;5.90;;;2.77;;
6013;SDS011;3035;49.928;8.410;2023-05-07T09:46:29;2.77;;;2.47;;
6013;SDS011;3035;49.928;8.410;2023-05-07T09:48:57;3.03;;;2.63;;
6013;SDS011;3035;49.928;8.410;2023-05-07T09:51:28;2.60;;;2.40;;
6013;SDS011;3035;49.928;8.410;2023-05-07T09:53:57;4.27;;;2.83;;
6013;SDS011;3035;49.928;8.410;2023-05-07T09:56:26;3.90;;;2.30;;
6013;SDS011;3035;49.928;8.410;2023-05-07T09:58:55;10.63;;;2.50;;
6013;SDS011;3035;49.928;8.410;2023-05-07T10:01:24;4.03;;;2.50;;
6013;SDS011;3035;49.928;8.410;2023-05-07T10:03:53;4.93;;;2.77;;
6013;SDS011;3035;49.928;8.410;2023-05-07T10:06:21;2.50;;;2.30;;
6013;SDS011;3035;49.928;8.410;2023-05-07T10:08:50;3.53;;;2.40;;
6013;SDS011;3035;49.928;8.410;2023-05-07T10:11:18;3.63;;;2.40;;
6013;SDS011;3035;49.928;8.410;2023-05-07T10:13:46;4.17;;;2.40;;
6013;SDS011;3035;49.928;8.410;2023-05-07T10:16:15;2.40;;;2.17;;
6013;SDS011;3035;49.928;8.410;2023-05-07T10:18:43;3.67;;;2.77;;
6013;SDS011;3035;49.928;8.410;2023-05-07T10:21:16;3.40;;;2.30;;
6013;SDS011;3035;49.928;8.410;2023-05-07T10:23:45;5.17;;;2.83;;
6013;SDS011;3035;49.928;8.410;2023-05-07T10:26:12;2.90;;;2.40;;
6013;SDS011;3035;49.928;8.410;2023-05-07T10:28:41;2.20;;;2.00;;
6013;SDS011;3035;49.928;8.410;2023-05-07T10:34:06;4.93;;;3.00;;
6013;SDS011;3035;49.928;8.410;2023-05-07T10:36:31;2.80;;;2.60;;
6013;SDS011;3035;49.928;8.410;2023-05-07T10:39:00;5.13;;;2.53;;
6013;SDS011;3035;49.928;8.410;2023-05-07T10:41:29;5.60;;;2.17;;
6013;SDS011;3035;49.928;8.410;2023-05-07T10:43:57;3.10;;;2.53;;
6013;SDS011;3035;49.928;8.410;2023-05-07T10:46:25;4.87;;;2.60;;
6013;SDS011;3035;49.928;8.410;2023-05-07T10:49:07;4.07;;;2.83;;
6013;SDS011;3035;49.928;8.410;2023-05-07T10:51:36;16.47;;;2.60;;
6013;SDS011;3035;49.928;8.410;2023-05-07T10:56:52;3.37;;;2.50;;
6013;SDS011;3035;49.928;8.410;2023-05-07T11:02:04;2.30;;;2.10;;
6013;SDS011;3035;49.928;8.410;2023-05-07T11:04:32;3.83;;;2.63;;
6013;SDS011;3035;49.928;8.410;2023-05-07T11:07:19;2.83;;;2.30;;
6013;SDS011;3035;49.928;8.410;2023-05-07T11:09:55;4.20;;;2.80;;
6013;SDS011;3035;49.928;8.410;2023-05-07T11:18:07;2.77;;;2.30;;
6013;SDS011;3035;49.928;8.410;2023-05-07T11:26:22;4.03;;;2.23;;
6013;SDS011;3035;49.928;8.410;2023-05-07T11:28:51;4.00;;;2.27;;
6013;SDS011;3035;49.928;8.410;2023-05-07T11:31:22;7.60;;;1.90;;
6013;SDS011;3035;49.928;8.410;2023-05-07T11:33:51;1.77;;;1.67;;
6013;SDS011;3035;49.928;8.410;2023-05-07T11:36:20;5.00;;;1.83;;
6013;SDS011;3035;49.928;8.410;2023-05-07T11:38:47;4.13;;;2.00;;
6013;SDS011;3035;49.928;8.410;2023-05-07T11:41:16;2.07;;;1.80;;
6013;SDS011;3035;49.928;8.410;2023-05-07T11:46:22;3.77;;;2.17;;
6013;SDS011;3035;49.928;8.410;2023-05-07T11:48:50;2.53;;;1.70;;
6013;SDS011;3035;49.928;8.410;2023-05-07T11:51:18;3.73;;;2.07;;
6013;SDS011;3035;49.928;8.410;2023-05-07T11:53:47;2.37;;;1.80;;
6013;SDS011;3035;49.928;8.410;2023-05-07T11:56:16;5.60;;;1.87;;
6013;SDS011;3035;49.928;8.410;2023-05-07T11:58:45;1.77;;;1.63;;
6013;SDS011;3035;49.928;8.410;2023-05-07T12:01:12;2.77;;;1.80;;
6013;SDS011;3035;49.928;8.410;2023-05-07T12:03:41;2.13;;;1.70;;
6013;SDS011;3035;49.928;8.410;2023-05-07T12:06:10;2.77;;;1.73;;
6013;SDS011;3035;49.928;8.410;2023-05-07T12:08:39;2.40;;;1.50;;
6013;SDS011;3035;49.928;8.410;2023-05-07T12:11:08;3.33;;;1.90;;
6013;SDS011;3035;49.928;8.410;2023-05-07T12:13:37;2.93;;;2.43;;
6013;SDS011;3035;49.928;8.410;2023-05-07T12:16:06;3.37;;;2.00;;
6013;SDS011;3035;49.928;8.410;2023-05-07T12:18:35;4.93;;;2.03;;
6013;SDS011;3035;49.928;8.410;2023-05-07T12:21:04;2.70;;;1.83;;
6013;SDS011;3035;49.928;8.410;2023-05-07T12:23:33;4.60;;;1.53;;
6013;SDS011;3035;49.928;8.410;2023-05-07T12:26:01;2.00;;;1.80;;
6013;SDS011;3035;49.928;8.410;2023-05-07T12:28:29;2.10;;;1.90;;
6013;SDS011;3035;49.928;8.410;2023-05-07T12:30:58;2.10;;;1.90;;
6013;SDS011;3035;49.928;8.410;2023-05-07T12:33:27;3.00;;;1.50;;
6013;SDS011;3035;49.928;8.410;2023-05-07T12:35:55;3.23;;;1.40;;
6013;SDS011;3035;49.928;8.410;2023-05-07T12:38:23;2.50;;;1.37;;
6013;SDS011;3035;49.928;8.410;2023-05-07T12:40:54;1.77;;;1.50;;
6013;SDS011;3035;49.928;8.410;2023-05-07T12:43:24;3.43;;;1.50;;
6013;SDS011;3035;49.928;8.410;2023-05-07T12:45:54;3.10;;;1.50;;
6013;SDS011;3035;49.928;8.410;2023-05-07T12:48:22;2.30;;;1.30;;
6013;SDS011;3035;49.928;8.410;2023-05-07T12:50:51;2.63;;;1.40;;
6013;SDS011;3035;49.928;8.410;2023-05-07T12:53:20;3.10;;;1.53;;
6013;SDS011;3035;49.928;8.410;2023-05-07T12:55:49;2.10;;;1.50;;
6013;SDS011;3035;49.928;8.410;2023-05-07T12:58:17;2.23;;;1.80;;
6013;SDS011;3035;49.928;8.410;2023-05-07T13:00:47;5.80;;;1.50;;
6013;SDS011;3035;49.928;8.410;2023-05-07T13:06:06;2.03;;;1.30;;
6013;SDS011;3035;49.928;8.410;2023-05-07T13:08:34;1.50;;;1.40;;
6013;SDS011;3035;49.928;8.410;2023-05-07T13:11:03;3.47;;;1.90;;
6013;SDS011;3035;49.928;8.410;2023-05-07T13:13:32;1.30;;;1.20;;
6013;SDS011;3035;49.928;8.410;2023-05-07T13:16:00;3.00;;;1.43;;
6013;SDS011;3035;49.928;8.410;2023-05-07T13:18:29;2.70;;;1.50;;
6013;SDS011;3035;49.928;8.410;2023-05-07T13:20:57;1.63;;;1.43;;
6013;SDS011;3035;49.928;8.410;2023-05-07T13:23:25;1.53;;;1.43;;
6013;SDS011;3035;49.928;8.410;2023-05-07T13:25:54;2.67;;;1.60;;
6013;SDS011;3035;49.928;8.410;2023-05-07T13:28:24;1.47;;;1.33;;
6013;SDS011;3035;49.928;8.410;2023-05-07T13:30:52;3.70;;;1.40;;
6013;SDS011;3035;49.928;8.410;2023-05-07T13:33:20;3.63;;;1.60;;
6013;SDS011;3035;49.928;8.410;2023-05-07T13:35:48;7.53;;;1.97;;
6013;SDS011;3035;49.928;8.410;2023-05-07T13:38:16;3.63;;;1.97;;
6013;SDS011;3035;49.928;8.410;2023-05-07T13:40:44;2.90;;;1.60;;
6013;SDS011;3035;49.928;8.410;2023-05-07T13:43:13;2.70;;;1.50;;
6013;SDS011;3035;49.928;8.410;2023-05-07T13:45:41;2.03;;;1.20;;
6013;SDS011;3035;49.928;8.410;2023-05-07T13:48:10;3.13;;;1.70;;
6013;SDS011;3035;49.928;8.410;2023-05-07T13:50:38;2.50;;;1.70;;
6013;SDS011;3035;49.928;8.410;2023-05-07T13:53:07;2.90;;;1.30;;
6013;SDS011;3035;49.928;8.410;2023-05-07T13:55:36;3.20;;;1.50;;
6013;SDS011;3035;49.928;8.410;2023-05-07T13:58:05;2.13;;;1.57;;
6013;SDS011;3035;49.928;8.410;2023-05-07T14:00:33;6.40;;;1.60;;
6013;SDS011;3035;49.928;8.410;2023-05-07T14:03:01;7.30;;;1.60;;
6013;SDS011;3035;49.928;8.410;2023-05-07T14:05:29;4.00;;;2.20;;
6013;SDS011;3035;49.928;8.410;2023-05-07T14:07:58;2.90;;;1.73;;
6013;SDS011;3035;49.928;8.410;2023-05-07T14:10:27;3.53;;;1.60;;
6013;SDS011;3035;49.928;8.410;2023-05-07T14:12:56;2.07;;;1.60;;
6013;SDS011;3035;49.928;8.410;2023-05-07T14:15:24;2.00;;;1.50;;
6013;SDS011;3035;49.928;8.410;2023-05-07T14:17:53;3.83;;;1.83;;
6013;SDS011;3035;49.928;8.410;2023-05-07T14:20:21;2.00;;;1.50;;
6013;SDS011;3035;49.928;8.410;2023-05-07T14:22:50;3.77;;;1.40;;
6013;SDS011;3035;49.928;8.410;2023-05-07T14:25:18;2.27;;;1.53;;
6013;SDS011;3035;49.928;8.410;2023-05-07T14:27:47;3.83;;;2.23;;
6013;SDS011;3035;49.928;8.410;2023-05-07T14:30:16;9.13;;;1.67;;
6013;SDS011;3035;49.928;8.410;2023-05-07T14:32:44;4.60;;;1.60;;
6013;SDS011;3035;49.928;8.410;2023-05-07T14:35:13;1.63;;;1.43;;
6013;SDS011;3035;49.928;8.410;2023-05-07T14:37:42;1.80;;;1.70;;
6013;SDS011;3035;49.928;8.410;2023-05-07T14:40:10;9.60;;;1.60;;
6013;SDS011;3035;49.928;8.410;2023-05-07T14:42:39;1.87;;;1.70;;
6013;SDS011;3035;49.928;8.410;2023-05-07T14:45:09;2.37;;;1.77;;
6013;SDS011;3035;49.928;8.410;2023-05-07T14:47:38;3.90;;;1.90;;
6013;SDS011;3035;49.928;8.410;2023-05-07T14:50:07;4.73;;;1.57;;
6013;SDS011;3035;49.928;8.410;2023-05-07T14:52:36;1.87;;;1.53;;
6013;SDS011;3035;49.928;8.410;2023-05-07T14:55:06;2.07;;;1.57;;
6013;SDS011;3035;49.928;8.410;2023-05-07T14:57:36;4.90;;;1.70;;
6013;SDS011;3035;49.928;8.410;2023-05-07T15:00:05;1.70;;;1.60;;
6013;SDS011;3035;49.928;8.410;2023-05-07T15:02:35;5.00;;;1.80;;
6013;SDS011;3035;49.928;8.410;2023-05-07T15:05:04;3.80;;;1.50;;
6013;SDS011;3035;49.928;8.410;2023-05-07T15:07:33;2.07;;;1.83;;
6013;SDS011;3035;49.928;8.410;2023-05-07T15:10:02;4.27;;;2.00;;
6013;SDS011;3035;49.928;8.410;2023-05-07T15:12:32;3.77;;;1.50;;
6013;SDS011;3035;49.928;8.410;2023-05-07T15:15:00;2.23;;;1.70;;
6013;SDS011;3035;49.928;8.410;2023-05-07T15:17:28;1.97;;;1.57;;
6013;SDS011;3035;49.928;8.410;2023-05-07T15:19:57;1.60;;;1.50;;
6013;SDS011;3035;49.928;8.410;2023-05-07T15:22:27;2.60;;;1.87;;
6013;SDS011;3035;49.928;8.410;2023-05-07T15:24:55;4.27;;;1.57;;
6013;SDS011;3035;49.928;8.410;2023-05-07T15:27:23;2.77;;;1.90;;
6013;SDS011;3035;49.928;8.410;2023-05-07T15:29:51;2.90;;;1.70;;
6013;SDS011;3035;49.928;8.410;2023-05-07T15:32:20;1.90;;;1.70;;
6013;SDS011;3035;49.928;8.410;2023-05-07T15:34:48;5.20;;;1.60;;
6013;SDS011;3035;49.928;8.410;2023-05-07T15:37:17;2.83;;;1.80;;
6013;SDS011;3035;49.928;8.410;2023-05-07T15:39:45;1.80;;;1.53;;
6013;SDS011;3035;49.928;8.410;2023-05-07T15:42:13;3.33;;;2.00;;
6013;SDS011;3035;49.928;8.410;2023-05-07T15:44:43;3.37;;;1.60;;
6013;SDS011;3035;49.928;8.410;2023-05-07T15:47:11;6.13;;;1.70;;
6013;SDS011;3035;49.928;8.410;2023-05-07T15:49:40;1.70;;;1.50;;